Time;durP1;ratioP1;P1;durP2;ratioP2;P2;SDS_P1;SDS_P2;PMS_P1;PMS_P2;Temp;Humidity;BMP_temperature;BMP_pressure;BME280_temperature;BME280_humidity;BME280_pressure;Samples;Min_cycle;Max_cycle;Signal;HPM_P1;HPM_P2
2023/06/19 00:00:12;;;;;;;2.40;0.60;;;16.40;99.90;;;;;;5053551;28;20610;-89
2023/06/19 00:02:39;;;;;;;1.92;1.30;;;16.40;99.90;;;;;;5051965;28;20275;-85
2023/06/19 00:05:07;;;;;;;3.13;0.80;;;16.50;99.90;;;;;;5036792;28;20225;-87
2023/06/19 00:07:33;;;;;;;1.23;0.50;;;16.50;99.90;;;;;;5054740;28;20208;-87
2023/06/19 00:09:59;;;;;;;0.77;0.68;;;16.50;99.90;;;;;;5035297;28;20823;-82
2023/06/19 00:12:25;;;;;;;0.50;0.50;;;16.50;99.90;;;;;;5034762;28;20289;-84
2023/06/19 00:14:51;;;;;;;0.88;0.85;;;16.50;99.90;;;;;;5053354;28;20276;-90
2023/06/19 00:17:42;;;;;;;1.30;0.88;;;16.50;99.90;;;;;;5055003;28;20197;-90
2023/06/19 00:20:09;;;;;;;1.33;0.77;;;16.50;99.90;;;;;;5034931;28;20204;-84
2023/06/19 00:22:35;;;;;;;1.00;0.75;;;16.40;99.90;;;;;;5035081;28;20251;-86
2023/06/19 00:25:01;;;;;;;1.23;1.10;;;16.40;99.90;;;;;;5035417;28;20560;-81
2023/06/19 00:27:26;;;;;;;1.40;0.90;;;16.50;99.90;;;;;;5052493;28;20185;-84
2023/06/19 00:29:52;;;;;;;1.17;1.00;;;16.50;99.90;;;;;;5034504;28;20243;-83
2023/06/19 00:32:20;;;;;;;0.90;0.90;;;16.50;99.90;;;;;;5035092;28;20197;-83
2023/06/19 00:34:46;;;;;;;0.40;0.40;;;16.50;99.90;;;;;;5035170;28;20205;-83
2023/06/19 00:37:13;;;;;;;2.15;1.05;;;16.50;99.90;;;;;;5034622;28;20186;-83
2023/06/19 00:39:40;;;;;;;0.98;0.73;;;16.50;99.90;;;;;;5034197;28;20610;-83
2023/06/19 00:42:06;;;;;;;1.98;1.20;;;16.50;99.90;;;;;;5023553;28;20205;-84
2023/06/19 00:44:32;;;;;;;1.27;0.80;;;16.50;99.90;;;;;;5033277;28;20194;-88
2023/06/19 00:47:00;;;;;;;0.80;0.80;;;16.50;99.90;;;;;;5051595;28;20700;-84
2023/06/19 00:49:29;;;;;;;1.13;1.02;;;16.50;99.90;;;;;;5035115;28;20212;-86
2023/06/19 00:51:55;;;;;;;0.65;0.65;;;16.50;99.90;;;;;;5033978;28;20575;-85
2023/06/19 00:54:25;;;;;;;1.10;0.98;;;16.50;99.90;;;;;;5052353;28;20276;-87
2023/06/19 00:56:52;;;;;;;0.73;0.73;;;16.50;99.90;;;;;;5053936;28;20193;-87
2023/06/19 00:59:19;;;;;;;3.38;1.10;;;16.50;99.90;;;;;;5034072;28;20251;-83
2023/06/19 01:01:48;;;;;;;1.02;0.85;;;16.50;99.90;;;;;;5073413;22;20225;-68
2023/06/19 01:04:14;;;;;;;0.70;0.70;;;16.50;99.90;;;;;;5034618;28;20208;-68
2023/06/19 01:07:09;;;;;;;1.92;0.85;;;16.40;99.90;;;;;;5051598;28;20273;-69
2023/06/19 01:09:44;;;;;;;0.73;0.60;;;16.50;99.90;;;;;;5049207;28;20264;-68
2023/06/19 01:12:23;;;;;;;0.60;0.50;;;16.50;99.90;;;;;;5052204;28;20663;-69
2023/06/19 01:15:09;;;;;;;0.73;0.73;;;16.50;99.90;;;;;;5051961;28;20198;-68
2023/06/19 01:17:36;;;;;;;0.73;0.73;;;16.50;99.90;;;;;;5034069;28;20562;-69
2023/06/19 01:20:08;;;;;;;1.23;1.08;;;16.50;99.90;;;;;;5052371;28;20194;-69
2023/06/19 01:22:34;;;;;;;1.23;1.13;;;16.50;99.90;;;;;;5051775;28;20196;-68
2023/06/19 01:25:00;;;;;;;0.65;0.63;;;16.40;99.90;;;;;;5051655;28;20193;-69
2023/06/19 01:27:30;;;;;;;1.33;1.00;;;16.40;99.90;;;;;;5051954;28;20656;-69
2023/06/19 01:29:58;;;;;;;0.80;0.80;;;16.40;99.90;;;;;;5052272;28;20200;-68
2023/06/19 01:32:54;;;;;;;0.40;0.40;;;16.40;99.90;;;;;;5033489;28;20602;-68
2023/06/19 01:35:24;;;;;;;0.63;0.63;;;16.40;99.90;;;;;;5051596;28;20189;-69
2023/06/19 01:37:52;;;;;;;1.95;1.55;;;16.40;99.90;;;;;;5033534;28;20204;-68
2023/06/19 01:40:21;;;;;;;2.45;1.20;;;16.40;99.90;;;;;;5051259;28;20559;-68
2023/06/19 01:42:48;;;;;;;16.88;0.93;;;16.40;99.90;;;;;;5051250;28;20620;-68
2023/06/19 01:45:14;;;;;;;1.17;1.08;;;16.40;99.90;;;;;;5051303;28;20197;-69
2023/06/19 01:47:40;;;;;;;0.75;0.75;;;16.40;99.90;;;;;;5051091;28;20569;-68
2023/06/19 01:50:10;;;;;;;0.38;0.38;;;16.40;99.90;;;;;;5051272;28;20678;-69
2023/06/19 01:52:38;;;;;;;1.00;0.95;;;16.40;99.90;;;;;;5050994;28;20201;-68
2023/06/19 01:55:09;;;;;;;7.88;1.52;;;16.40;99.90;;;;;;5051343;28;20189;-68
2023/06/19 01:57:36;;;;;;;0.93;0.90;;;16.30;99.90;;;;;;5050978;28;20189;-68
2023/06/19 02:00:04;;;;;;;1.80;1.40;;;16.30;99.90;;;;;;5033716;28;20521;-69
2023/06/19 02:02:30;;;;;;;1.30;1.10;;;16.30;99.90;;;;;;5047702;28;20225;-69
2023/06/19 02:04:56;;;;;;;0.60;0.60;;;16.30;99.90;;;;;;5071313;28;20242;-69
2023/06/19 02:07:22;;;;;;;1.27;0.95;;;16.30;99.90;;;;;;5070798;28;20199;-68
2023/06/19 02:09:48;;;;;;;0.65;0.65;;;16.30;99.90;;;;;;5070740;28;20744;-68
2023/06/19 02:12:13;;;;;;;1.02;1.00;;;16.30;99.90;;;;;;5070878;28;20257;-69
2023/06/19 02:14:39;;;;;;;1.10;1.05;;;16.30;99.90;;;;;;5070967;28;20197;-69
2023/06/19 02:17:05;;;;;;;2.25;1.98;;;16.30;99.90;;;;;;5052876;28;20671;-69
2023/06/19 02:19:31;;;;;;;1.17;1.02;;;16.30;99.90;;;;;;5070912;28;20192;-69
2023/06/19 02:21:56;;;;;;;1.58;1.13;;;16.20;99.90;;;;;;5070778;28;20288;-67
2023/06/19 02:24:22;;;;;;;0.63;0.63;;;16.20;99.90;;;;;;5070667;28;20258;-68
2023/06/19 02:26:51;;;;;;;2.10;1.75;;;16.20;99.90;;;;;;5070997;28;20195;-68
2023/06/19 02:29:17;;;;;;;0.68;0.68;;;16.20;99.90;;;;;;5070596;28;20205;-68
2023/06/19 02:31:44;;;;;;;2.55;1.52;;;16.20;99.90;;;;;;5070749;28;20670;-69
2023/06/19 02:34:10;;;;;;;3.42;2.17;;;16.20;99.90;;;;;;5071040;28;20185;-69
2023/06/19 02:36:36;;;;;;;2.65;1.33;;;16.10;99.90;;;;;;5071212;28;20652;-69
2023/06/19 02:39:05;;;;;;;1.08;0.95;;;16.10;99.90;;;;;;5057448;28;20264;-69
2023/06/19 02:41:31;;;;;;;0.68;0.65;;;16.10;99.90;;;;;;5054750;28;20204;-68
2023/06/19 02:43:56;;;;;;;3.05;1.48;;;16.10;99.90;;;;;;5054889;28;20205;-67
2023/06/19 02:46:22;;;;;;;0.75;0.75;;;16.10;99.90;;;;;;5054503;28;20197;-68
2023/06/19 02:48:51;;;;;;;1.23;1.10;;;16.10;99.90;;;;;;5036845;28;20205;-68
2023/06/19 02:51:17;;;;;;;1.08;1.08;;;16.10;99.90;;;;;;5054827;28;20190;-67
2023/06/19 02:53:43;;;;;;;0.52;0.52;;;16.00;99.90;;;;;;5054347;28;20208;-67
2023/06/19 02:56:11;;;;;;;0.52;0.40;;;16.00;99.90;;;;;;5054512;28;20185;-67
2023/06/19 02:58:37;;;;;;;1.42;1.30;;;16.00;99.90;;;;;;5054538;28;20201;-67
2023/06/19 03:01:06;;;;;;;1.08;1.02;;;16.00;99.90;;;;;;5054345;28;20611;-68
2023/06/19 03:03:37;;;;;;;0.73;0.73;;;16.00;99.90;;;;;;5040156;28;20445;-67
2023/06/19 03:06:15;;;;;;;0.80;0.70;;;16.00;99.90;;;;;;5036311;28;20724;-68
2023/06/19 03:08:41;;;;;;;2.67;1.00;;;16.00;99.90;;;;;;5053852;28;20212;-68
2023/06/19 03:11:07;;;;;;;2.10;1.42;;;16.00;99.90;;;;;;5036839;28;20208;-67
2023/06/19 03:13:48;;;;;;;1.25;1.15;;;16.00;99.90;;;;;;5054114;28;20703;-67
2023/06/19 03:16:17;;;;;;;1.10;1.00;;;16.00;99.90;;;;;;5054228;28;20765;-67
2023/06/19 03:18:48;;;;;;;2.80;1.20;;;16.10;99.90;;;;;;5036254;28;20212;-67
2023/06/19 03:21:15;;;;;;;1.58;1.48;;;16.10;99.90;;;;;;5035576;28;20593;-67
2023/06/19 03:23:41;;;;;;;1.20;1.10;;;16.10;99.90;;;;;;5053981;28;20200;-68
2023/06/19 03:26:07;;;;;;;1.08;0.98;;;16.00;99.90;;;;;;5035800;28;20227;-67
2023/06/19 03:28:34;;;;;;;3.33;2.28;;;16.10;99.90;;;;;;5053270;28;20197;-67
2023/06/19 03:31:00;;;;;;;1.20;1.10;;;16.10;99.90;;;;;;5053411;28;20616;-67
2023/06/19 03:33:29;;;;;;;0.73;0.73;;;16.00;99.90;;;;;;5053935;28;20181;-67
2023/06/19 03:35:55;;;;;;;0.98;0.82;;;16.00;99.90;;;;;;5044102;28;20209;-67
2023/06/19 03:38:21;;;;;;;0.65;0.65;;;16.00;99.90;;;;;;5035470;28;20722;-68
2023/06/19 03:40:47;;;;;;;1.02;1.02;;;16.00;99.90;;;;;;5054055;28;20194;-68
2023/06/19 03:43:13;;;;;;;2.30;1.55;;;16.00;99.90;;;;;;5035547;28;20204;-67
2023/06/19 03:45:39;;;;;;;25.05;1.75;;;16.10;99.90;;;;;;5053452;28;20563;-67
2023/06/19 03:48:04;;;;;;;1.90;1.42;;;16.00;99.90;;;;;;5051850;28;20194;-67
2023/06/19 03:50:30;;;;;;;0.60;0.60;;;16.10;99.90;;;;;;5035084;28;20610;-67
2023/06/19 03:52:59;;;;;;;1.35;1.25;;;16.00;99.90;;;;;;5053004;28;20668;-67
2023/06/19 03:55:24;;;;;;;1.38;1.27;;;16.00;99.90;;;;;;5053393;28;20194;-68
2023/06/19 03:57:50;;;;;;;2.15;1.05;;;16.10;99.90;;;;;;5053450;28;20204;-68
2023/06/19 04:00:18;;;;;;;2.20;1.40;;;16.10;99.90;;;;;;5053449;28;20249;-68
2023/06/19 04:02:46;;;;;;;1.20;0.90;;;16.10;99.90;;;;;;5053506;28;20229;-67
2023/06/19 04:05:12;;;;;;;1.08;1.08;;;16.00;99.90;;;;;;5053149;28;20193;-69
2023/06/19 04:07:38;;;;;;;1.20;1.10;;;16.10;99.90;;;;;;5053066;28;20284;-68
2023/06/19 04:10:04;;;;;;;0.68;0.68;;;16.00;99.90;;;;;;5034636;28;20280;-68
2023/06/19 04:12:30;;;;;;;1.33;1.10;;;16.10;99.90;;;;;;5053009;28;20193;-68
2023/06/19 04:14:55;;;;;;;1.23;1.13;;;16.10;99.90;;;;;;5052794;28;20262;-68
2023/06/19 04:17:21;;;;;;;0.98;0.68;;;16.10;99.90;;;;;;5052818;28;20274;-68
2023/06/19 04:19:47;;;;;;;0.75;0.68;;;16.10;99.90;;;;;;5053157;28;20201;-68
2023/06/19 04:22:12;;;;;;;1.73;1.48;;;16.10;99.90;;;;;;5034722;28;20205;-69
2023/06/19 04:24:38;;;;;;;0.93;0.75;;;16.10;99.90;;;;;;5052767;28;20242;-68
2023/06/19 04:27:04;;;;;;;1.50;1.38;;;16.20;99.90;;;;;;5052677;28;20271;-68
2023/06/19 04:29:33;;;;;;;0.77;0.77;;;16.20;99.90;;;;;;5034719;28;20248;-68
2023/06/19 04:31:59;;;;;;;1.42;1.30;;;16.20;99.90;;;;;;5052307;28;20193;-68
2023/06/19 04:34:25;;;;;;;0.50;0.50;;;16.20;99.90;;;;;;5052559;28;20209;-68
2023/06/19 04:36:58;;;;;;;1.08;0.68;;;16.20;99.90;;;;;;5052798;28;20276;-68
2023/06/19 04:39:24;;;;;;;1.48;1.30;;;16.20;99.90;;;;;;5053033;28;20193;-67
2023/06/19 04:41:50;;;;;;;1.00;0.85;;;16.20;99.90;;;;;;5034846;28;20390;-68
2023/06/19 04:44:16;;;;;;;1.25;1.15;;;16.20;99.90;;;;;;5033665;28;20568;-67
2023/06/19 04:46:43;;;;;;;0.82;0.82;;;16.10;99.90;;;;;;5053108;28;20193;-66
2023/06/19 04:49:09;;;;;;;0.60;0.60;;;16.10;99.90;;;;;;5052590;28;20224;-67
2023/06/19 04:51:35;;;;;;;1.25;1.02;;;16.10;99.90;;;;;;5051974;28;20197;-69
2023/06/19 04:54:02;;;;;;;1.77;1.33;;;16.10;99.90;;;;;;5034059;28;20193;-68
2023/06/19 04:56:28;;;;;;;1.65;1.35;;;16.10;99.90;;;;;;5033944;28;20571;-68
2023/06/19 04:58:56;;;;;;;2.42;0.82;;;16.10;99.90;;;;;;5034246;28;20251;-69
2023/06/19 05:01:47;;;;;;;1.08;0.90;;;16.10;99.90;;;;;;5033049;28;20545;-70
2023/06/19 05:04:57;;;;;;;1.20;1.10;;;16.10;99.90;;;;;;5053059;28;20256;-70
2023/06/19 05:07:50;;;;;;;4.78;2.42;;;16.10;99.90;;;;;;5072135;28;20189;-68
2023/06/19 05:10:16;;;;;;;3.85;1.88;;;16.10;99.90;;;;;;5053903;28;20200;-68
2023/06/19 05:12:42;;;;;;;1.05;0.93;;;16.10;99.90;;;;;;5071687;28;20180;-68
2023/06/19 05:15:08;;;;;;;0.55;0.55;;;16.10;99.90;;;;;;5071890;28;20306;-68
2023/06/19 05:17:34;;;;;;;1.15;1.00;;;16.10;99.90;;;;;;5071526;28;20197;-67
2023/06/19 05:20:00;;;;;;;2.72;1.55;;;16.10;99.90;;;;;;5071201;28;20216;-68
2023/06/19 05:22:26;;;;;;;0.70;0.70;;;16.10;99.90;;;;;;5071350;28;20193;-67
2023/06/19 05:24:52;;;;;;;0.82;0.82;;;16.20;99.90;;;;;;5071721;28;20263;-67
2023/06/19 05:27:18;;;;;;;0.75;0.75;;;16.10;99.90;;;;;;5136074;22;20246;-83
2023/06/19 05:29:44;;;;;;;1.13;1.02;;;16.10;99.90;;;;;;5021795;28;20206;-83
2023/06/19 05:32:31;;;;;;;1.10;1.00;;;16.20;99.90;;;;;;5021661;28;20532;-83
2023/06/19 05:35:01;;;;;;;0.75;0.75;;;16.20;99.90;;;;;;5024290;28;20700;-82
2023/06/19 05:37:33;;;;;;;1.23;0.85;;;16.30;99.90;;;;;;5023826;28;20201;-83
2023/06/19 05:40:29;;;;;;;0.95;0.85;;;16.40;99.90;;;;;;5023606;28;20201;-82
2023/06/19 05:42:59;;;;;;;0.77;0.77;;;16.50;99.90;;;;;;5021697;28;20202;-84
2023/06/19 05:45:36;;;;;;;1.20;1.20;;;16.50;99.90;;;;;;5024908;28;20194;-84
2023/06/19 05:48:10;;;;;;;1.73;1.02;;;16.50;99.90;;;;;;5030234;28;20209;-84
2023/06/19 05:51:16;;;;;;;0.90;0.85;;;16.50;99.90;;;;;;5045589;28;20231;-84
2023/06/19 05:53:45;;;;;;;0.75;0.75;;;16.50;99.90;;;;;;5031266;28;20262;-83
2023/06/19 05:56:39;;;;;;;1.13;0.80;;;16.30;99.90;;;;;;5025263;28;20195;-83
2023/06/19 05:59:08;;;;;;;1.30;1.20;;;16.30;99.90;;;;;;5034746;28;20185;-87
2023/06/19 06:02:00;;;;;;;;;;;;;;;;;;;;;
2023/06/19 06:04:38;;;;;;;0.98;0.98;;;16.40;99.90;;;;;;5046842;28;20237;-86
2023/06/19 06:07:30;;;;;;;0.57;0.57;;;16.50;99.90;;;;;;5027483;28;20212;-86
2023/06/19 06:10:26;;;;;;;1.48;1.27;;;16.60;99.90;;;;;;5029135;28;20230;-85
2023/06/19 06:16:24;;;;;;;1.85;0.60;;;16.70;99.90;;;;;;5045174;28;20209;-83
2023/06/19 06:19:25;;;;;;;1.35;1.25;;;16.80;99.90;;;;;;5027332;28;20606;-84
2023/06/19 06:26:18;;;;;;;;;;;;;;;;;;;;;
2023/06/19 06:28:35;;;;;;;1.30;1.20;;;16.80;99.90;;;;;;4863610;29;20781;-84
2023/06/19 06:31:28;;;;;;;1.13;0.85;;;16.80;99.90;;;;;;4851324;29;20237;-83
2023/06/19 06:34:00;;;;;;;0.60;0.60;;;16.80;99.90;;;;;;4848917;29;20711;-83
2023/06/19 06:40:11;;;;;;;0.98;0.70;;;16.80;99.90;;;;;;4829365;29;20277;-86
2023/06/19 06:42:49;;;;;;;1.25;1.15;;;16.70;99.90;;;;;;4826844;29;20210;-88
2023/06/19 06:45:37;;;;;;;0.55;0.55;;;16.80;99.90;;;;;;4798267;29;20278;-86
2023/06/19 06:48:21;;;;;;;0.60;0.60;;;16.80;99.90;;;;;;4825911;29;20234;-87
2023/06/19 06:51:15;;;;;;;1.25;1.00;;;16.80;99.90;;;;;;4761418;30;20223;-88
2023/06/19 06:54:08;;;;;;;1.08;0.98;;;16.80;99.90;;;;;;4777275;29;20211;-87
2023/06/19 06:56:42;;;;;;;0.80;0.80;;;16.80;99.90;;;;;;4790795;29;20275;-87
2023/06/19 07:02:50;;;;;;;;;;;;;;;;;;;;;
2023/06/19 07:06:01;;;;;;;1.02;0.88;;;16.90;99.90;;;;;;4864292;29;20288;-83
2023/06/19 07:08:40;;;;;;;2.05;1.38;;;16.90;99.90;;;;;;4866635;29;20235;-84
2023/06/19 07:11:40;;;;;;;1.15;0.73;;;17.00;99.90;;;;;;4865351;29;20208;-84
2023/06/19 07:14:20;;;;;;;;;;;;;;;;;;;;;
2023/06/19 07:17:20;;;;;;;0.90;0.90;;;17.00;99.90;;;;;;4885035;29;20227;-83
2023/06/19 07:20:06;;;;;;;1.38;1.27;;;17.00;99.90;;;;;;4921392;29;20216;-89
2023/06/19 07:22:41;;;;;;;0.82;0.82;;;17.00;99.90;;;;;;4934761;29;20221;-88
2023/06/19 07:28:10;;;;;;;0.85;0.65;;;17.10;99.90;;;;;;4953635;29;20232;-89
2023/06/19 07:30:45;;;;;;;0.50;0.50;;;17.20;99.90;;;;;;4945419;29;20277;-90
2023/06/19 07:33:13;;;;;;;1.00;0.68;;;17.40;99.90;;;;;;4919361;29;20269;-90
2023/06/19 07:35:42;;;;;;;1.40;1.30;;;17.70;99.90;;;;;;4938865;29;20198;-86
2023/06/19 07:38:28;;;;;;;0.77;0.60;;;18.10;99.90;;;;;;4937193;29;20186;-89
2023/06/19 07:41:09;;;;;;;2.60;1.27;;;18.40;99.90;;;;;;4917758;29;20210;-90
2023/06/19 07:43:53;;;;;;;1.65;1.35;;;18.80;99.90;;;;;;4917223;29;20237;-89
2023/06/19 07:46:21;;;;;;;1.42;0.82;;;18.90;99.90;;;;;;4917287;29;20237;-90
2023/06/19 07:49:42;;;;;;;0.80;0.80;;;19.00;99.90;;;;;;4930377;29;20355;-89
2023/06/19 07:52:37;;;;;;;;;;;;;;;;;;;;;
2023/06/19 07:55:17;;;;;;;0.88;0.65;;;18.70;99.90;;;;;;4834247;29;20276;-84
2023/06/19 07:57:43;;;;;;;1.10;1.00;;;18.50;99.90;;;;;;4819068;29;20297;-81
2023/06/19 08:00:19;;;;;;;1.30;1.20;;;18.60;99.90;;;;;;4833595;29;20205;-83
2023/06/19 08:02:57;;;;;;;1.55;1.25;;;18.60;99.90;;;;;;4835043;29;20217;-83
2023/06/19 08:05:27;;;;;;;0.82;0.82;;;18.60;99.90;;;;;;4872544;29;20206;-83
2023/06/19 08:08:05;;;;;;;0.93;0.85;;;18.70;99.90;;;;;;4926305;29;20674;-83
2023/06/19 08:10:47;;;;;;;0.60;0.60;;;18.60;99.90;;;;;;4927442;29;20202;-83
2023/06/19 08:14:19;;;;;;;0.63;0.63;;;18.60;99.90;;;;;;4909865;29;20714;-83
2023/06/19 08:16:52;;;;;;;0.65;0.65;;;18.70;99.90;;;;;;4890607;29;20302;-84
2023/06/19 08:20:21;;;;;;;0.90;0.90;;;19.00;99.90;;;;;;4873453;29;20211;-84
2023/06/19 08:26:18;;;;;;;1.05;0.95;;;20.00;99.90;;;;;;4888155;29;20220;-84
2023/06/19 08:29:28;;;;;;;1.02;0.93;;;20.30;99.90;;;;;;4928086;28;20220;-84
2023/06/19 08:33:08;;;;;;;;;;;;;;;;;;;;;
2023/06/19 08:35:40;;;;;;;1.15;1.05;;;20.40;99.90;;;;;;4934906;28;20309;-84
2023/06/19 08:38:42;;;;;;;0.85;0.77;;;20.40;99.90;;;;;;4967747;28;20243;-85
2023/06/19 08:41:55;;;;;;;1.13;1.02;;;20.20;99.90;;;;;;4947178;29;20209;-85
2023/06/19 08:48:45;;;;;;;1.33;0.70;;;20.60;99.90;;;;;;4856488;29;20220;-85
2023/06/19 08:58:33;;;;;;;1.98;0.98;;;21.60;99.90;;;;;;4787784;29;20215;-85
2023/06/19 09:01:43;;;;;;;1.13;1.00;;;21.50;99.90;;;;;;4818308;29;20772;-85
2023/06/19 09:04:30;;;;;;;1.23;1.13;;;21.20;99.90;;;;;;4774978;30;20320;-85
2023/06/19 09:07:39;;;;;;;0.32;0.32;;;21.10;99.90;;;;;;4798900;30;20234;-85
2023/06/19 09:10:50;;;;;;;0.68;0.68;;;21.20;99.90;;;;;;4799491;30;20263;-84
2023/06/19 09:17:03;;;;;;;2.30;1.60;;;21.40;99.90;;;;;;4707762;30;20274;-85
2023/06/19 09:20:08;;;;;;;1.30;1.20;;;21.20;99.90;;;;;;4706642;30;20257;-86
2023/06/19 09:23:15;;;;;;;1.25;1.00;;;20.90;99.90;;;;;;4705865;30;20219;-85
2023/06/19 09:26:24;;;;;;;0.75;0.75;;;21.40;99.90;;;;;;4701087;30;20234;-87
2023/06/19 09:40:10;;;;;;;1.58;1.00;;;22.40;99.90;;;;;;4859887;29;20261;-86
2023/06/19 09:43:20;;;;;;;1.27;1.17;;;22.20;99.90;;;;;;4862639;29;20220;-85
2023/06/19 10:10:55;;;;;;;1.10;1.02;;;21.70;99.90;;;;;;4853935;29;20216;-86
2023/06/19 10:45:33;;;;;;;2.10;1.58;;;21.70;99.90;;;;;;4769165;30;20720;-84
2023/06/19 10:49:00;;;;;;;1.30;1.20;;;22.30;99.90;;;;;;4724598;30;20225;-83
2023/06/19 10:52:13;;;;;;;3.15;1.60;;;23.00;99.90;;;;;;4737832;30;20248;-84
2023/06/19 10:55:57;;;;;;;;;;;;;;;;;;;;;
2023/06/19 11:12:20;;;;;;;2.83;2.08;;;23.80;99.90;;;;;;4724428;30;20218;-86
2023/06/19 11:15:03;;;;;;;2.33;1.90;;;24.30;99.90;;;;;;4720261;30;20589;-86
2023/06/19 11:21:34;;;;;;;1.27;0.85;;;23.00;99.90;;;;;;4762563;30;20215;-86
2023/06/19 11:29:09;;;;;;;;;;;;;;;;;;;;;
2023/06/19 11:32:34;;;;;;;2.08;1.55;;;23.30;99.90;;;;;;4818650;29;20226;-87
2023/06/19 12:00:16;;;;;;;0.82;0.82;;;21.30;99.90;;;;;;5067593;28;20572;-80
2023/06/19 12:02:43;;;;;;;1.30;1.20;;;22.50;99.90;;;;;;5063726;28;20292;-81
2023/06/19 12:05:12;;;;;;;1.08;0.98;;;22.50;99.90;;;;;;5047663;28;20738;-80
2023/06/19 12:07:38;;;;;;;2.45;1.67;;;22.50;99.90;;;;;;5048487;28;20213;-80
2023/06/19 12:10:09;;;;;;;1.13;1.08;;;22.20;99.90;;;;;;5048447;28;20719;-80
2023/06/19 12:12:36;;;;;;;1.42;1.33;;;22.60;99.90;;;;;;5048462;28;20671;-79
2023/06/19 12:15:04;;;;;;;1.30;1.15;;;22.70;99.90;;;;;;5047724;28;20283;-81
2023/06/19 12:17:29;;;;;;;2.10;1.60;;;22.70;99.90;;;;;;5046711;28;20205;-79
2023/06/19 12:19:55;;;;;;;2.70;1.88;;;22.70;99.90;;;;;;5047096;28;20259;-80
2023/06/19 12:22:21;;;;;;;1.67;1.30;;;22.40;99.90;;;;;;5046601;28;20619;-80
2023/06/19 12:24:47;;;;;;;1.08;1.00;;;22.20;99.90;;;;;;5047100;28;20669;-80
2023/06/19 12:27:12;;;;;;;5.50;1.58;;;22.10;99.90;;;;;;5047071;28;20198;-79
2023/06/19 12:29:41;;;;;;;2.13;1.92;;;22.20;99.90;;;;;;5046544;28;20205;-80
2023/06/19 12:32:07;;;;;;;2.13;1.63;;;21.90;99.90;;;;;;5048715;28;20649;-79
2023/06/19 12:34:33;;;;;;;3.03;1.58;;;21.60;99.90;;;;;;5048267;28;20189;-80
2023/06/19 12:36:59;;;;;;;2.58;1.42;;;21.30;99.90;;;;;;5048219;28;20320;-80
2023/06/19 12:39:25;;;;;;;3.13;1.45;;;21.40;99.90;;;;;;5047861;28;20212;-79
2023/06/19 12:41:51;;;;;;;2.78;1.42;;;21.60;99.90;;;;;;5048206;28;20186;-79
2023/06/19 12:44:18;;;;;;;2.35;1.48;;;21.80;99.90;;;;;;5047930;28;20222;-80
2023/06/19 12:46:46;;;;;;;0.88;0.88;;;21.80;99.90;;;;;;5047899;28;20252;-79
2023/06/19 12:49:12;;;;;;;1.38;1.27;;;21.80;99.90;;;;;;5046740;28;20683;-78
2023/06/19 12:51:38;;;;;;;4.05;1.20;;;21.90;99.90;;;;;;5062701;28;20198;-79
2023/06/19 12:54:04;;;;;;;0.60;0.60;;;21.80;99.90;;;;;;5062677;28;20213;-80
2023/06/19 12:56:30;;;;;;;1.23;0.93;;;21.90;99.90;;;;;;5067595;28;20588;-80
2023/06/19 12:59:02;;;;;;;0.45;0.45;;;22.10;99.90;;;;;;5051429;28;20238;-79
2023/06/19 13:01:27;;;;;;;1.30;1.05;;;22.00;99.90;;;;;;5047686;28;20192;-80
2023/06/19 13:03:53;;;;;;;1.52;0.80;;;22.20;99.90;;;;;;5045730;28;20664;-79
2023/06/19 13:06:19;;;;;;;1.67;1.00;;;22.10;99.90;;;;;;5046200;28;20252;-80
2023/06/19 13:08:45;;;;;;;1.02;0.90;;;22.30;99.90;;;;;;5046625;28;20251;-80
2023/06/19 13:11:10;;;;;;;0.77;0.57;;;22.40;99.90;;;;;;5051400;28;20731;-80
2023/06/19 13:13:37;;;;;;;1.60;0.85;;;22.30;99.90;;;;;;5034406;28;20202;-80
2023/06/19 13:16:03;;;;;;;0.73;0.73;;;22.60;99.90;;;;;;5049630;28;20288;-79
2023/06/19 13:18:29;;;;;;;3.05;0.90;;;23.20;99.90;;;;;;5033537;28;20333;-80
2023/06/19 13:20:55;;;;;;;1.15;0.98;;;23.70;99.90;;;;;;5033432;28;20655;-80
2023/06/19 13:23:21;;;;;;;1.15;1.05;;;23.80;99.90;;;;;;5032838;28;20202;-80
2023/06/19 13:25:48;;;;;;;0.70;0.70;;;24.10;99.90;;;;;;5016137;28;20208;-79
2023/06/19 13:28:14;;;;;;;0.55;0.55;;;24.10;99.90;;;;;;5049481;28;20205;-79
2023/06/19 13:30:43;;;;;;;0.65;0.65;;;24.70;99.90;;;;;;5032236;28;20210;-80
2023/06/19 13:33:09;;;;;;;0.88;0.63;;;24.70;99.90;;;;;;5032888;28;20249;-81
2023/06/19 13:35:35;;;;;;;0.60;0.60;;;24.90;99.90;;;;;;5032445;28;20680;-80
2023/06/19 13:38:00;;;;;;;1.25;1.15;;;24.70;99.90;;;;;;5031799;28;20198;-81
2023/06/19 13:40:27;;;;;;;0.90;0.90;;;24.10;99.90;;;;;;5032192;28;20222;-80
2023/06/19 13:42:54;;;;;;;0.75;0.65;;;23.60;99.90;;;;;;5032135;28;20216;-80
2023/06/19 13:45:20;;;;;;;0.75;0.75;;;23.20;99.90;;;;;;5033884;28;20759;-80
2023/06/19 13:47:46;;;;;;;1.25;1.15;;;23.10;99.90;;;;;;5032321;28;20198;-81
2023/06/19 13:50:17;;;;;;;1.13;0.93;;;23.00;99.90;;;;;;5033693;28;20198;-80
2023/06/19 13:52:44;;;;;;;0.38;0.38;;;22.70;99.90;;;;;;5035896;28;20190;-80
2023/06/19 13:55:11;;;;;;;2.03;0.88;;;21.70;99.90;;;;;;5039449;28;20217;-80
2023/06/19 13:57:37;;;;;;;0.98;0.80;;;21.40;99.90;;;;;;5033428;28;20241;-81
2023/06/19 14:00:04;;;;;;;0.65;0.65;;;21.40;99.90;;;;;;5032520;28;20222;-81
2023/06/19 14:02:29;;;;;;;1.80;1.20;;;21.50;99.90;;;;;;5033746;28;20198;-81
2023/06/19 14:04:56;;;;;;;1.42;1.10;;;21.40;99.90;;;;;;5033942;28;20244;-81
2023/06/19 14:07:28;;;;;;;1.45;0.60;;;21.30;99.90;;;;;;5033488;28;20198;-82
2023/06/19 14:09:54;;;;;;;0.50;0.50;;;21.10;99.90;;;;;;5033588;28;20281;-79
2023/06/19 14:12:20;;;;;;;0.30;0.30;;;21.10;99.90;;;;;;5032117;28;20776;-82
2023/06/19 14:14:45;;;;;;;0.85;0.82;;;21.00;99.90;;;;;;5033166;28;20217;-81
2023/06/19 14:17:14;;;;;;;0.90;0.90;;;21.00;99.90;;;;;;5033420;28;20198;-81
2023/06/19 14:19:39;;;;;;;0.52;0.52;;;21.10;99.90;;;;;;5031889;28;20579;-81
2023/06/19 14:22:08;;;;;;;0.40;0.40;;;21.20;99.90;;;;;;5195405;23;20233;-84
2023/06/19 14:29:18;;;;;;;;;;;;;;;;;;;;;
2023/06/19 14:36:38;;;;;;;0.93;0.80;;;23.30;99.90;;;;;;4927916;29;20222;-85
2023/06/19 15:35:09;;;;;;;1.58;1.10;;;22.60;99.90;;;;;;4688051;30;20328;-86
2023/06/19 15:48:29;;;;;;;2.05;1.17;;;23.90;99.90;;;;;;4744140;30;20224;-85
2023/06/19 15:54:48;;;;;;;1.58;1.08;;;23.50;99.90;;;;;;4731108;30;20538;-85
2023/06/19 15:58:49;;;;;;;;;;;;;;;;;;;;;
2023/06/19 16:05:55;;;;;;;;;;;;;;;;;;;;;
2023/06/19 16:19:35;;;;;;;0.68;0.60;;;21.90;99.90;;;;;;4793875;29;20313;-85
2023/06/19 16:22:37;;;;;;;1.20;1.08;;;21.70;99.90;;;;;;4792621;29;20824;-85
2023/06/19 16:25:48;;;;;;;;;;;;;;;;;;;;;
2023/06/19 16:28:29;;;;;;;1.88;0.82;;;21.60;99.90;;;;;;4799312;29;20221;-81
2023/06/19 16:31:14;;;;;;;0.77;0.77;;;21.50;99.90;;;;;;4810482;29;20278;-84
2023/06/19 16:34:25;;;;;;;0.30;0.30;;;21.60;99.90;;;;;;4805071;29;20228;-87
2023/06/19 16:37:26;;;;;;;0.85;0.70;;;21.70;99.90;;;;;;4763362;30;20219;-88
2023/06/19 16:40:18;;;;;;;0.57;0.57;;;21.90;99.90;;;;;;4776436;30;20288;-86
2023/06/19 16:42:58;;;;;;;1.27;0.98;;;22.30;99.90;;;;;;4782799;29;20218;-84
2023/06/19 16:45:44;;;;;;;0.35;0.35;;;22.40;99.90;;;;;;4806870;29;20226;-80
2023/06/19 16:48:36;;;;;;;1.02;0.88;;;22.60;99.90;;;;;;4796226;30;20810;-81
2023/06/19 16:51:22;;;;;;;0.57;0.57;;;22.50;99.90;;;;;;4780804;30;20210;-84
2023/06/19 17:01:29;;;;;;;1.30;1.05;;;23.00;99.90;;;;;;4936728;29;20233;-82
2023/06/19 17:04:08;;;;;;;2.85;1.63;;;23.00;99.90;;;;;;4870904;29;20222;-83
2023/06/19 17:07:32;;;;;;;0.93;0.90;;;22.80;99.90;;;;;;4870644;29;20674;-82
2023/06/19 17:10:18;;;;;;;2.05;1.15;;;22.30;99.90;;;;;;4879281;29;20243;-82
2023/06/19 17:13:34;;;;;;;1.10;0.85;;;22.00;99.90;;;;;;4870954;29;20648;-81
2023/06/19 17:16:11;;;;;;;2.58;1.25;;;21.80;99.90;;;;;;4865806;28;20200;-83
2023/06/19 17:25:28;;;;;;;1.02;0.95;;;21.50;99.90;;;;;;4939141;29;20213;-87
2023/06/19 17:28:16;;;;;;;1.08;0.95;;;21.50;99.90;;;;;;4925813;29;20721;-88
2023/06/19 17:31:02;;;;;;;0.65;0.65;;;21.60;99.90;;;;;;4917973;29;20632;-88
2023/06/19 17:33:50;;;;;;;1.65;0.98;;;21.60;99.90;;;;;;4943315;29;20217;-91
2023/06/19 17:36:32;;;;;;;1.27;0.88;;;21.50;99.90;;;;;;4926577;29;20201;-87
2023/06/19 17:39:29;;;;;;;1.15;1.08;;;21.60;99.90;;;;;;4950729;28;20248;-86
2023/06/19 17:42:53;;;;;;;1.65;1.40;;;21.70;99.90;;;;;;4997690;28;20344;-88
2023/06/19 17:49:24;;;;;;;;;;;;;;;;;;;;;
2023/06/19 17:59:22;;;;;;;0.82;0.82;;;21.20;99.90;;;;;;4822237;29;20282;-85
2023/06/19 18:06:07;;;;;;;0.68;0.68;;;20.70;99.90;;;;;;4828750;29;20274;-88
2023/06/19 18:19:53;;;;;;;0.57;0.57;;;20.60;99.90;;;;;;4673591;30;20330;-88
2023/06/19 18:52:19;;;;;;;0.70;0.70;;;19.80;99.90;;;;;;4759285;30;20220;-87
2023/06/19 18:54:48;;;;;;;0.50;0.50;;;19.70;99.90;;;;;;4816709;23;20328;-69
2023/06/19 18:57:17;;;;;;;0.70;0.70;;;19.50;99.90;;;;;;5035414;28;20210;-69
2023/06/19 18:59:43;;;;;;;0.85;0.85;;;19.50;99.90;;;;;;5032820;28;20676;-68
2023/06/19 19:02:11;;;;;;;0.50;0.50;;;19.60;99.90;;;;;;5033030;28;20293;-69